Barbados Meteorological Services
Auto gathered TAF list
Powered by Apparatus software
For Flight AA2725
Contact Number 1-(246)-535-0021/2/3/4/5/6
WEB: http://www.barbadosweather.org

**********************************************

2018/01/23 06:57
TAF TLPL 230500Z 2306/2406 09017KT 9999 SCT024
TEMPO 2306/2312 SHRA


**********************************************
2018/01/23 06:24
TAF TJSJ 230520Z 2306/2406 07008KT P6SM FEW030
FM231400 08013KT P6SM SCT030
FM231800 07013G22KT P6SM VCSH FEW025 SCT050
FM232200 10009KT P6SM VCSH SCT025 SCT050


**********************************************
2018/01/23 06:03
TAF TFFR 230500Z 2306/2406 VRB02KT 9999 SCT030 PROB30
TEMPO 2307/2312 4000 SHRA SCT018TCU
BECMG 2312/2314 09010KT


**********************************************
2018/01/23 06:20
TAF TBPB 230500Z 2306/2406 08015KT 9999 SCT018 PROB30
TEMPO 2312/2320 SHRA BKN014


**********************************************
2018/01/23 06:27
TAF TAF TAPA 230500Z 2306/2406 09011KT 9999 SCT020 PROB30
TEMPO 2306/2320 SHRA


**********************************************
2018/01/22 18:37
TAF MYNN 221620Z 2218/2318 06009KT 9999 SCT025 SCT220


**********************************************
2018/01/22 18:46
TAF MTPP 221700Z 2218/2318 09013KT 9999 FEW026 SCT210
BECMG 2219/2223 28008KT PROB30
TEMPO 2302/2306 4800 -SHRA FEW014 SCT030
BECMG 2308/23212 VRB02KT 9000 NSW FEW016
TEMPO 2314/2316 10012G22KT


**********************************************
2018/01/23 12:54
TAF MDSD 231000Z 2312/2412 04005KT 9999 FEW020 SCT300
BECMG 2317/2319 14008KT


**********************************************
2018/01/23 06:33
TAF KSFB 230531Z 2306/2406 17006KT P6SM VCSH SCT035 BKN080 OVC110
TEMPO 2308/2312 3SM RA SCT020 BKN035
FM231200 20005KT P6SM VCSH SCT020 BKN035 OVC080
FM231800 23010KT P6SM VCSH SCT020 BKN035
FM232300 31007KT P6SM BKN020


**********************************************
2018/01/23 10:40
TAF
AMD KPHL 230933Z 2310/2412 16005KT P6SM VCTS OVC015CB WS020/20035KT
TEMPO 2310/2311 6SM -TSRA OVC015CB
FM231100 18009KT 6SM SHRA OVC015 WS020/20040KT
FM231400 19013KT 4SM SHRA OVC012 WS020/20045KT
FM231900 24007KT P6SM VCSH BKN020
FM232100 28011KT P6SM BKN035


**********************************************
2018/01/23 10:59
TAF
AMD KPBI 230959Z 2310/2406 15010KT P6SM SCT025 BKN050
FM231700 17012KT P6SM VCSH BKN050
FM240200 VRB03KT P6SM BKN050


**********************************************
2018/01/23 10:00
TAF
AMD KOPF 230959Z 2310/2406 13006KT P6SM FEW016 BKN030
FM231400 16010KT P6SM VCSH SCT025 BKN050
FM231700 17008KT P6SM VCSH SCT025 BKN050
FM240200 VRB03KT P6SM BKN050


**********************************************
2018/01/23 10:59
TAF
AMD KMIA 230959Z 2310/2412 13009KT P6SM FEW015 SCT020 BKN150
FM231400 16010KT P6SM VCSH SCT025 BKN050
FM240000 19005KT P6SM VCSH SCT025 BKN050
FM240200 VRB03KT P6SM BKN050
FM240600 32003KT P6SM OVC025


**********************************************
2018/01/23 06:33
TAF KMCO 230531Z 2306/2412 17006KT P6SM VCSH SCT035 BKN080 OVC110
TEMPO 2308/2312 3SM RA SCT020 BKN035
FM231200 20005KT P6SM VCSH SCT020 BKN035 OVC080
FM231800 23010KT P6SM VCSH SCT020 BKN035
FM232300 31007KT P6SM BKN020
FM240700 34007KT P6SM SCT025


**********************************************
2018/01/23 09:26
TAF
AMD KJFK 230922Z 2309/2412 10009KT 1/2SM FG OVC004 WS020/20040KT
TEMPO 2310/2311 1SM BR OVC006
FM231100 17011G21KT 2SM -SHRA BR OVC006 WS020/21045KT
FM231400 18021G28KT 1SM SHRA BR BKN007 OVC012 WS020/20055KT
FM231900 20016G24KT 4SM -SHRA BR SCT007 BKN015 WS020/21050KT
FM232100 22014KT P6SM VCSH SCT015 BKN035
FM232300 26014G22KT P6SM SCT060


**********************************************
2018/01/23 10:24
TAF
AMD KJAX 231021Z 2310/2406 20008KT P6SM -RA SCT010 BKN050
FM231300 23010KT P6SM SCT008 BKN015
FM232200 27006KT P6SM SCT025 BKN250
FM240500 31004KT P6SM BKN250


**********************************************
2018/01/23 10:59
TAF
AMD KFLL 230959Z 2310/2412 13010KT P6SM SCT020 BKN150
FM231400 15010KT P6SM VCSH SCT025 BKN050
FM240000 17005KT P6SM VCSH SCT025 BKN050
FM240200 VRB03KT P6SM BKN050
FM240600 32003KT P6SM OVC025


**********************************************
2018/01/23 10:21
TAF
AMD KEWR 231019Z 2310/2412 04008KT 1SM BR OVC003 WS020/20035KT
TEMPO 2310/2311 1/2SM FG OVC002
FM231100 14005KT 2SM SHRA BR SCT004 OVC007 WS020/21040KT
FM231400 18015G25KT 1SM SHRA BR BKN007 OVC012 WS020/20045KT
FM231900 21013G21KT 4SM -SHRA SCT007 BKN015 WS020/20045KT
FM232100 24010KT P6SM VCSH SCT015 BKN035
FM232300 26013G21KT P6SM SCT070


**********************************************
2018/01/23 09:52
TAF
AMD KCLT 230850Z 2309/2412 22012KT 6SM -RA BR FEW015 BKN035
FM231100 19015G21KT P6SM OVC030
FM231300 22013G20KT P6SM OVC035
FM231400 24015G21KT P6SM FEW250
FM232300 28008KT P6SM FEW150


**********************************************
2018/01/23 10:57
TAF
AMD KATL 230954Z 2310/2412 26017G24KT P6SM FEW026 SCT035 BKN050
FM231300 28015G24KT P6SM FEW050 BKN250
FM231500 28013G22KT P6SM FEW250
FM240000 30010KT P6SM FEW250


**********************************************